createdAt,value
2019-04-11T00:00:29.470Z,58.58
2019-04-11T00:01:08.623Z,61.80
2019-04-11T00:01:48.223Z,60.15
2019-04-11T00:02:22.930Z,56.33
2019-04-11T00:02:57.507Z,58.85
2019-04-11T00:03:32.090Z,57.70
2019-04-11T00:04:08.216Z,57.30
2019-04-11T00:04:43.058Z,62.25
2019-04-11T00:05:18.870Z,55.65
2019-04-11T00:05:53.656Z,55.90
2019-04-11T00:06:28.246Z,55.20
2019-04-11T00:07:03.727Z,58.70
2019-04-11T00:07:38.559Z,54.18
2019-04-11T00:08:14.191Z,63.35
2019-04-11T00:08:48.805Z,62.15
2019-04-11T00:09:23.526Z,54.93
2019-04-11T00:09:58.845Z,59.40
2019-04-11T00:10:33.832Z,54.58
2019-04-11T00:11:09.468Z,60.98
2019-04-11T00:11:44.290Z,60.38
2019-04-11T00:12:19.095Z,56.40
2019-04-11T00:12:54.767Z,58.25
2019-04-11T00:13:31.718Z,56.30
2019-04-11T00:14:05.883Z,63.83
2019-04-11T00:14:40.789Z,53.83
2019-04-11T00:15:16.070Z,54.33
2019-04-11T00:15:50.923Z,55.88
2019-04-11T00:16:25.618Z,56.30
2019-04-11T00:17:01.569Z,65.22
2019-04-11T00:17:36.327Z,56.18
2019-04-11T00:18:10.863Z,55.90
2019-04-11T00:18:45.462Z,56.33
2019-04-11T00:19:21.086Z,55.08
2019-04-11T00:19:57.834Z,55.55
2019-04-11T00:20:32.618Z,63.28
2019-04-11T00:21:07.185Z,64.10
2019-04-11T00:21:41.786Z,61.30
2019-04-11T00:22:17.373Z,62.27
2019-04-11T00:22:52.655Z,58.15
2019-04-11T00:23:27.315Z,53.00
2019-04-11T00:24:02.762Z,60.38
2019-04-11T00:24:38.703Z,54.60
2019-04-11T00:25:13.571Z,61.95
2019-04-11T00:25:48.249Z,56.75
2019-04-11T00:26:22.850Z,58.48
2019-04-11T00:26:57.553Z,58.73
2019-04-11T00:27:32.971Z,63.30
2019-04-11T00:28:07.846Z,58.98
2019-04-11T00:28:42.713Z,60.23
2019-04-11T00:29:18.405Z,58.78
2019-04-11T00:29:53.368Z,55.83
2019-04-11T00:30:28.190Z,59.05
2019-04-11T00:31:04.200Z,59.20
2019-04-11T00:31:39.154Z,55.83
2019-04-11T00:32:13.747Z,57.08
2019-04-11T00:32:49.692Z,61.77
2019-04-11T00:33:24.903Z,57.15
2019-04-11T00:33:59.504Z,59.10
2019-04-11T00:34:35.209Z,62.65
2019-04-11T00:35:11.126Z,65.97
2019-04-11T00:35:46.030Z,56.92
2019-04-11T00:36:20.649Z,58.98
2019-04-11T00:36:55.246Z,56.53
2019-04-11T00:37:29.861Z,63.23
2019-04-11T00:38:05.477Z,62.40
2019-04-11T00:38:40.319Z,56.98
2019-04-11T00:39:15.272Z,56.58
2019-04-11T00:39:50.071Z,58.87
2019-04-11T00:40:24.917Z,57.83
2019-04-11T00:40:59.740Z,61.05
2019-04-11T00:41:34.472Z,58.20
2019-04-11T00:42:10.257Z,58.95
2019-04-11T00:42:45.192Z,56.77
2019-04-11T00:43:30.867Z,60.30
2019-04-11T00:43:56.675Z,53.30
2019-04-11T00:44:31.354Z,63.58
2019-04-11T00:45:07.451Z,60.80
2019-04-11T00:45:43.467Z,58.92
2019-04-11T00:46:18.318Z,58.68
2019-04-11T00:46:52.951Z,60.78
2019-04-11T00:47:27.673Z,61.75
2019-04-11T00:48:02.256Z,59.13
2019-04-11T00:48:37.728Z,57.80
2019-04-11T00:49:12.420Z,57.67
2019-04-11T00:49:47.026Z,62.78
2019-04-11T00:50:21.603Z,61.63
2019-04-11T00:50:56.468Z,59.13
2019-04-11T00:51:31.889Z,55.15
2019-04-11T00:52:06.622Z,55.43
2019-04-11T00:52:41.325Z,56.75
2019-04-11T00:53:16.058Z,57.05
2019-04-11T00:53:50.668Z,62.93
2019-04-11T00:54:25.247Z,55.28
2019-04-11T00:54:59.932Z,56.60
2019-04-11T00:55:35.527Z,57.23
2019-04-11T00:56:10.927Z,53.05
2019-04-11T00:56:45.696Z,60.17
2019-04-11T00:57:21.052Z,61.92
2019-04-11T00:57:57.004Z,58.23
2019-04-11T00:58:31.929Z,63.20
2019-04-11T00:59:06.530Z,61.13
2019-04-11T00:59:41.150Z,61.25
2019-04-11T01:00:16.275Z,57.35
2019-04-11T01:00:51.410Z,60.80
2019-04-11T01:01:26.060Z,54.85
2019-04-11T01:02:01.002Z,56.95
2019-04-11T01:02:35.889Z,56.42
2019-04-11T01:03:11.752Z,59.03
2019-04-11T01:03:47.430Z,64.17
2019-04-11T01:04:23.390Z,56.53
2019-04-11T01:04:59.167Z,63.08
2019-04-11T01:05:33.929Z,59.48
2019-04-11T01:06:08.521Z,57.88
2019-04-11T01:06:43.047Z,53.25
2019-04-11T01:07:18.531Z,57.85
2019-04-11T01:07:53.427Z,52.85
2019-04-11T01:08:29.420Z,60.35
2019-04-11T01:09:06.283Z,56.98
2019-04-11T01:09:40.877Z,53.85
2019-04-11T01:10:16.197Z,56.73
2019-04-11T01:10:51.778Z,57.53
2019-04-11T01:11:26.482Z,57.53
2019-04-11T01:12:01.091Z,56.95
2019-04-11T01:12:36.553Z,61.40
2019-04-11T01:13:11.287Z,63.85
2019-04-11T01:13:50.884Z,57.60
2019-04-11T01:14:22.194Z,56.92
2019-04-11T01:14:57.362Z,57.58
2019-04-11T01:15:32.387Z,52.90
2019-04-11T01:16:09.128Z,52.48
2019-04-11T01:16:54.266Z,58.52
2019-04-11T01:17:31.523Z,55.52
2019-04-11T01:18:06.688Z,54.85
2019-04-11T01:18:42.373Z,57.23
2019-04-11T01:19:18.347Z,55.92
2019-04-11T01:19:53.297Z,57.50
2019-04-11T01:20:29.248Z,63.42
2019-04-11T01:21:04.072Z,54.00
2019-04-11T01:21:38.747Z,52.73
2019-04-11T01:22:14.024Z,57.70
2019-04-11T01:22:48.770Z,54.73
2019-04-11T01:23:23.424Z,56.77
2019-04-11T01:23:58.016Z,61.30
2019-04-11T01:24:33.648Z,54.13
2019-04-11T01:25:08.900Z,53.20
2019-04-11T01:25:44.347Z,53.80
2019-04-11T01:26:19.163Z,53.85
2019-04-11T01:26:53.967Z,55.78
2019-04-11T01:27:29.814Z,58.38
2019-04-11T01:28:04.668Z,56.95
2019-04-11T01:28:39.297Z,56.25
2019-04-11T01:29:13.981Z,50.50
2019-04-11T01:29:51.557Z,54.10
2019-04-11T01:30:30.649Z,59.60
2019-04-11T01:31:07.953Z,57.20
2019-04-11T01:31:44.394Z,55.38
2019-04-11T01:32:19.050Z,48.68
2019-04-11T01:32:54.798Z,54.98
2019-04-11T01:33:29.714Z,54.85
2019-04-11T01:34:04.475Z,62.93
2019-04-11T01:34:39.100Z,52.50
2019-04-11T01:35:13.698Z,54.80
2019-04-11T01:35:48.307Z,55.52
2019-04-11T01:36:22.913Z,53.00
2019-04-11T01:37:00.089Z,56.80
2019-04-11T01:37:35.584Z,54.58
2019-04-11T01:38:10.363Z,56.28
2019-04-11T01:38:46.684Z,54.20
2019-04-11T01:39:39.266Z,59.33
2019-04-11T01:40:14.391Z,52.20
2019-04-11T01:40:49.805Z,57.45
2019-04-11T01:41:25.359Z,55.25
2019-04-11T01:42:00.751Z,53.68
2019-04-11T01:42:35.679Z,49.00
2019-04-11T01:43:11.394Z,53.33
2019-04-11T01:43:53.482Z,57.80
2019-04-11T01:44:22.811Z,52.70
2019-04-11T01:44:57.368Z,54.18
2019-04-11T01:45:32.004Z,48.68
2019-04-11T01:46:07.716Z,52.78
2019-04-11T01:46:42.455Z,48.87
2019-04-11T01:47:18.990Z,48.33
2019-04-11T01:47:57.873Z,48.63
2019-04-11T01:48:43.822Z,49.33
2019-04-11T01:49:21.899Z,49.65
2019-04-11T01:49:56.681Z,52.45
2019-04-11T01:50:32.816Z,50.12
2019-04-11T01:51:07.582Z,49.65
2019-04-11T01:51:42.238Z,48.75
2019-04-11T01:52:16.791Z,49.30
2019-04-11T01:52:51.326Z,49.30
2019-04-11T01:53:26.817Z,47.85
2019-04-11T01:54:01.574Z,51.20
2019-04-11T01:54:36.197Z,45.58
2019-04-11T01:55:10.922Z,45.23
2019-04-11T01:55:45.553Z,46.35
2019-04-11T01:56:21.047Z,40.28
2019-04-11T01:56:55.914Z,44.77
2019-04-11T01:57:30.507Z,43.52
2019-04-11T01:58:05.082Z,46.20
2019-04-11T01:58:40.617Z,39.98
2019-04-11T01:59:15.335Z,41.05
2019-04-11T01:59:49.930Z,43.35
2019-04-11T02:00:28.622Z,43.92
2019-04-11T02:01:04.831Z,42.70
2019-04-11T02:01:41.161Z,40.85
2019-04-11T02:02:21.224Z,39.20
2019-04-11T02:02:57.578Z,44.00
2019-04-11T02:03:33.754Z,39.83
2019-04-11T02:04:22.035Z,39.15
2019-04-11T02:04:58.710Z,36.73
2019-04-11T02:05:35.060Z,39.23
2019-04-11T02:06:09.981Z,40.73
2019-04-11T02:06:45.777Z,45.33
2019-04-11T02:07:20.608Z,36.63
2019-04-11T02:07:55.327Z,35.25
2019-04-11T02:08:29.898Z,32.45
2019-04-11T02:09:08.092Z,33.20
2019-04-11T02:09:42.793Z,35.63
2019-04-11T02:10:17.401Z,38.40
2019-04-11T02:10:52.906Z,32.70
2019-04-11T02:11:27.739Z,33.73
2019-04-11T02:12:03.650Z,29.55
2019-04-11T02:12:39.351Z,32.58
2019-04-11T02:13:14.094Z,32.30
2019-04-11T02:13:48.701Z,31.33
2019-04-11T02:14:24.132Z,31.55
2019-04-11T02:14:59.792Z,32.70
2019-04-11T02:15:36.552Z,27.20
2019-04-11T02:16:12.554Z,25.97
2019-04-11T02:16:47.448Z,26.27
2019-04-11T02:17:22.341Z,27.65
2019-04-11T02:17:57.331Z,26.37
2019-04-11T02:18:31.881Z,23.75
2019-04-11T02:19:06.460Z,25.48
2019-04-11T02:19:40.981Z,27.20
2019-04-11T02:20:16.645Z,24.20
2019-04-11T02:20:51.395Z,26.73
2019-04-11T02:21:26.023Z,33.55
2019-04-11T02:22:18.405Z,27.90
2019-04-11T02:22:54.995Z,31.82
2019-04-11T02:23:47.654Z,26.07
2019-04-11T02:24:40.121Z,23.25
2019-04-11T02:25:28.339Z,27.40
2019-04-11T02:26:21.213Z,23.15
2019-04-11T02:26:58.706Z,24.20
2019-04-11T02:27:34.974Z,24.05
2019-04-11T02:28:10.622Z,24.55
2019-04-11T02:28:45.250Z,28.00
2019-04-11T02:29:19.860Z,24.50
2019-04-11T02:29:55.144Z,24.32
2019-04-11T02:30:30.706Z,31.82
2019-04-11T02:31:07.114Z,23.83
2019-04-11T02:31:42.409Z,21.80
2019-04-11T02:32:18.542Z,22.50
2019-04-11T02:32:53.655Z,24.25
2019-04-11T02:33:28.429Z,21.15
2019-04-11T02:34:04.445Z,21.35
2019-04-11T02:34:39.755Z,24.20
2019-04-11T02:35:15.352Z,21.68
2019-04-11T02:35:51.848Z,22.58
2019-04-11T02:36:27.324Z,24.72
2019-04-11T02:37:02.657Z,23.98
2019-04-11T02:37:37.902Z,23.32
2019-04-11T02:38:14.881Z,20.70
2019-04-11T02:38:53.995Z,23.67
2019-04-11T02:39:27.574Z,21.77
2019-04-11T02:40:03.097Z,24.25
2019-04-11T02:40:38.738Z,22.77
2019-04-11T02:41:14.181Z,22.05
2019-04-11T02:41:50.611Z,29.65
2019-04-11T02:42:25.608Z,20.68
2019-04-11T02:43:01.506Z,22.05
2019-04-11T02:43:36.581Z,20.95
2019-04-11T02:44:30.682Z,23.38
2019-04-11T02:45:05.915Z,23.20
2019-04-11T02:45:36.706Z,24.45
2019-04-11T02:46:11.779Z,22.40
2019-04-11T02:46:47.552Z,24.75
2019-04-11T02:47:22.030Z,24.43
2019-04-11T02:47:51.746Z,23.90
2019-04-11T02:48:26.944Z,25.68
2019-04-11T02:49:02.982Z,24.45
2019-04-11T02:49:39.280Z,24.60
2019-04-11T02:50:18.592Z,24.43
2019-04-11T02:50:50.936Z,22.32
2019-04-11T02:51:27.020Z,21.25
2019-04-11T02:52:02.713Z,25.00
2019-04-11T02:52:37.868Z,22.00
2019-04-11T02:53:14.690Z,23.62
2019-04-11T02:53:50.395Z,25.15
2019-04-11T02:54:26.604Z,25.52
2019-04-11T02:55:03.393Z,24.32
2019-04-11T02:55:39.225Z,27.48
2019-04-11T02:56:14.934Z,20.48
2019-04-11T02:56:52.343Z,20.82
2019-04-11T02:57:26.512Z,24.63
2019-04-11T02:58:01.864Z,20.05
2019-04-11T02:58:39.092Z,21.85
2019-04-11T02:59:15.306Z,22.30
2019-04-11T02:59:51.217Z,22.77
2019-04-11T03:00:26.693Z,22.73
2019-04-11T03:01:05.214Z,26.07
2019-04-11T03:01:39.856Z,23.35
2019-04-11T03:02:17.606Z,23.35
2019-04-11T03:02:53.125Z,25.55
2019-04-11T03:03:27.593Z,23.73
2019-04-11T03:04:04.340Z,21.55
2019-04-11T03:04:39.339Z,22.25
2019-04-11T03:05:14.141Z,22.15
2019-04-11T03:05:48.757Z,21.73
2019-04-11T03:06:23.503Z,21.27
2019-04-11T03:06:59.829Z,24.70
2019-04-11T03:07:35.926Z,20.50
2019-04-11T03:08:13.974Z,24.52
2019-04-11T03:08:49.013Z,21.77
2019-04-11T03:09:24.193Z,21.87
2019-04-11T03:10:00.274Z,28.47
2019-04-11T03:10:36.059Z,25.08
2019-04-11T03:11:11.351Z,23.75
2019-04-11T03:11:47.254Z,22.80
2019-04-11T03:12:24.010Z,23.77
2019-04-11T03:12:59.050Z,22.80
2019-04-11T03:13:35.359Z,22.40
2019-04-11T03:14:12.164Z,21.82
2019-04-11T03:15:05.470Z,21.25
2019-04-11T03:15:37.449Z,25.60
2019-04-11T03:16:16.804Z,23.00
2019-04-11T03:16:49.281Z,22.27
2019-04-11T03:17:19.586Z,22.60
2019-04-11T03:17:52.562Z,24.12
2019-04-11T03:18:47.394Z,32.35
2019-04-11T03:19:18.411Z,22.50
2019-04-11T03:19:49.216Z,21.65
2019-04-11T03:20:25.843Z,25.45
2019-04-11T03:20:56.915Z,23.83
2019-04-11T03:21:30.817Z,24.07
2019-04-11T03:22:05.570Z,22.05
2019-04-11T03:22:40.565Z,22.90
2019-04-11T03:23:19.322Z,21.20
2019-04-11T03:23:52.620Z,24.27
2019-04-11T03:24:30.470Z,25.65
2019-04-11T03:25:05.398Z,21.05
2019-04-11T03:25:40.600Z,22.93
2019-04-11T03:26:16.863Z,23.10
2019-04-11T03:26:52.668Z,24.75
2019-04-11T03:27:30.365Z,21.45
2019-04-11T03:28:06.338Z,20.95
2019-04-11T03:28:45.133Z,22.27
2019-04-11T03:29:19.739Z,20.82
2019-04-11T03:29:56.030Z,25.20
2019-04-11T03:30:46.495Z,20.65
2019-04-11T03:31:44.660Z,30.27
2019-04-11T03:32:34.311Z,20.90
2019-04-11T03:33:00.734Z,24.65
2019-04-11T03:34:58.816Z,22.10
2019-04-11T03:36:55.730Z,21.40
2019-04-11T03:37:17.356Z,23.75
2019-04-11T03:37:40.058Z,23.55
2019-04-11T03:38:12.439Z,24.20
2019-04-11T03:38:46.908Z,21.15
2019-04-11T03:39:21.575Z,21.85
2019-04-11T03:40:00.547Z,23.20
2019-04-11T03:40:38.680Z,24.10
2019-04-11T03:41:14.165Z,23.87
2019-04-11T03:41:50.806Z,23.20
2019-04-11T03:42:20.599Z,21.25
2019-04-11T03:42:59.465Z,24.18
2019-04-11T03:43:34.538Z,26.20
2019-04-11T03:44:04.396Z,22.10
2019-04-11T03:44:41.724Z,23.12
2019-04-11T03:45:33.229Z,24.43
2019-04-11T03:46:05.211Z,21.33
2019-04-11T03:46:38.494Z,22.65
2019-04-11T03:47:16.569Z,22.22
2019-04-11T03:47:51.838Z,21.10
2019-04-11T03:48:29.010Z,19.23
2019-04-11T03:49:00.000Z,21.75
2019-04-11T03:49:35.615Z,25.40
2019-04-11T03:50:08.451Z,21.37
2019-04-11T03:50:39.934Z,23.47
2019-04-11T03:51:16.689Z,21.15
2019-04-11T03:51:53.041Z,20.60
2019-04-11T03:52:28.438Z,20.30
2019-04-11T03:53:04.791Z,20.68
2019-04-11T03:53:41.080Z,20.17
2019-04-11T03:54:17.766Z,19.87
2019-04-11T03:54:53.973Z,21.52
2019-04-11T03:55:32.424Z,23.30
2019-04-11T03:56:07.730Z,23.67
2019-04-11T03:56:43.284Z,21.00
2019-04-11T03:57:18.207Z,23.12
2019-04-11T03:57:54.290Z,20.27
2019-04-11T03:58:31.154Z,26.70
2019-04-11T03:59:08.470Z,19.45
2019-04-11T03:59:43.764Z,18.27
2019-04-11T04:00:19.307Z,21.40
2019-04-11T04:00:58.792Z,17.82
2019-04-11T04:01:32.008Z,19.70
2019-04-11T04:02:07.930Z,22.55
2019-04-11T04:02:44.447Z,20.37
2019-04-11T04:03:20.210Z,22.77
2019-04-11T04:03:55.925Z,20.00
2019-04-11T04:04:30.576Z,21.55
2019-04-11T04:05:08.333Z,19.25
2019-04-11T04:05:44.392Z,20.95
2019-04-11T04:06:20.620Z,21.68
2019-04-11T04:06:57.602Z,19.00
2019-04-11T04:07:33.647Z,18.80
2019-04-11T04:08:10.762Z,19.17
2019-04-11T04:08:46.620Z,21.75
2019-04-11T04:09:23.771Z,18.87
2019-04-11T04:09:58.562Z,21.60
2019-04-11T04:10:36.162Z,19.02
2019-04-11T04:11:20.515Z,18.48
2019-04-11T04:11:56.939Z,19.48
2019-04-11T04:12:33.614Z,19.05
2019-04-11T04:13:14.243Z,16.60
2019-04-11T04:13:48.151Z,16.95
2019-04-11T04:14:26.448Z,21.85
2019-04-11T04:15:08.280Z,21.52
2019-04-11T04:16:06.342Z,20.30
2019-04-11T04:16:40.911Z,19.85
2019-04-11T04:17:19.336Z,20.25
2019-04-11T04:18:09.647Z,19.12
2019-04-11T04:18:47.685Z,19.40
2019-04-11T04:19:40.306Z,18.60
2019-04-11T04:20:33.210Z,19.55
2019-04-11T04:21:10.857Z,18.40
2019-04-11T04:21:55.186Z,18.98
2019-04-11T04:22:37.763Z,22.10
2019-04-11T04:23:14.373Z,21.00
2019-04-11T04:23:49.825Z,18.15
2019-04-11T04:24:34.837Z,18.62
2019-04-11T04:25:10.120Z,17.42
2019-04-11T04:25:47.137Z,19.90
2019-04-11T04:26:22.773Z,18.73
2019-04-11T04:26:59.941Z,21.00
2019-04-11T04:27:35.244Z,19.98
2019-04-11T04:28:11.658Z,19.85
2019-04-11T04:28:47.553Z,26.23
2019-04-11T04:29:25.142Z,19.20
2019-04-11T04:30:01.544Z,21.68
2019-04-11T04:30:35.997Z,19.82
2019-04-11T04:31:11.675Z,17.45
2019-04-11T04:31:46.695Z,21.57
2019-04-11T04:32:23.019Z,25.25
2019-04-11T04:32:58.129Z,19.55
2019-04-11T04:33:35.070Z,22.70
2019-04-11T04:34:09.480Z,22.52
2019-04-11T04:34:44.496Z,20.55
2019-04-11T04:35:22.150Z,23.10
2019-04-11T04:35:58.029Z,18.60
2019-04-11T04:36:34.679Z,21.42
2019-04-11T04:37:09.551Z,19.70
2019-04-11T04:37:45.374Z,17.55
2019-04-11T04:38:21.195Z,20.23
2019-04-11T04:38:57.135Z,20.15
2019-04-11T04:39:34.327Z,19.98
2019-04-11T04:40:23.851Z,21.37
2019-04-11T04:41:00.322Z,22.70
2019-04-11T04:41:33.434Z,22.07
2019-04-11T04:42:09.210Z,17.37
2019-04-11T04:42:45.850Z,18.85
2019-04-11T04:43:16.579Z,20.25
2019-04-11T04:43:52.774Z,19.45
2019-04-11T04:44:29.464Z,17.82
2019-04-11T04:45:08.964Z,19.42
2019-04-11T04:46:03.557Z,21.17
2019-04-11T04:46:36.603Z,17.82
2019-04-11T04:47:07.420Z,19.30
2019-04-11T04:47:39.664Z,26.15
2019-04-11T04:48:11.668Z,20.97
2019-04-11T04:48:45.495Z,19.50
2019-04-11T04:49:21.347Z,18.12
2019-04-11T04:49:57.097Z,16.15
2019-04-11T04:50:31.795Z,20.60
2019-04-11T04:51:09.131Z,19.70
2019-04-11T04:51:43.678Z,17.87
2019-04-11T04:52:19.473Z,18.45
2019-04-11T04:52:55.970Z,19.37
2019-04-11T04:53:33.051Z,19.57
2019-04-11T04:54:08.131Z,18.87
2019-04-11T04:54:44.349Z,23.07
2019-04-11T04:55:19.443Z,18.35
2019-04-11T04:55:55.302Z,20.10
2019-04-11T04:56:32.203Z,20.80
2019-04-11T04:57:07.181Z,18.42
2019-04-11T04:57:43.009Z,18.55
2019-04-11T04:58:20.787Z,21.15
2019-04-11T04:58:56.023Z,16.75
2019-04-11T04:59:32.019Z,20.50
2019-04-11T05:00:09.210Z,17.52
2019-04-11T05:00:45.368Z,22.48
2019-04-11T05:01:21.733Z,22.82
2019-04-11T05:01:56.684Z,21.33
2019-04-11T05:02:32.760Z,18.48
2019-04-11T05:03:08.306Z,21.48
2019-04-11T05:03:44.678Z,20.70
2019-04-11T05:04:21.030Z,19.60
2019-04-11T05:04:56.614Z,19.07
2019-04-11T05:05:31.329Z,19.90
2019-04-11T05:06:05.907Z,19.35
2019-04-11T05:06:41.205Z,17.23
2019-04-11T05:07:17.187Z,17.95
2019-04-11T05:07:52.115Z,19.40
2019-04-11T05:08:27.218Z,18.42
2019-04-11T05:09:01.935Z,19.48
2019-04-11T05:09:38.074Z,16.93
2019-04-11T05:10:13.435Z,19.07
2019-04-11T05:10:49.187Z,17.98
2019-04-11T05:11:23.964Z,21.55
2019-04-11T05:11:58.640Z,21.23
2019-04-11T05:12:34.589Z,18.57
2019-04-11T05:13:09.947Z,21.35
2019-04-11T05:13:48.226Z,19.95
2019-04-11T05:14:21.082Z,17.10
2019-04-11T05:14:56.028Z,23.50
2019-04-11T05:15:30.746Z,21.33
2019-04-11T05:16:16.098Z,17.27
2019-04-11T05:16:41.815Z,17.62
2019-04-11T05:17:17.156Z,19.12
2019-04-11T05:17:53.197Z,22.87
2019-04-11T05:18:27.993Z,22.65
2019-04-11T05:19:02.540Z,19.25
2019-04-11T05:19:38.264Z,17.40
2019-04-11T05:20:14.050Z,19.00
2019-04-11T05:20:48.883Z,17.07
2019-04-11T05:21:23.447Z,23.92
2019-04-11T05:21:58.101Z,17.07
2019-04-11T05:22:33.182Z,18.45
2019-04-11T05:23:08.456Z,18.25
2019-04-11T05:23:42.999Z,19.75
2019-04-11T05:24:18.652Z,17.90
2019-04-11T05:24:53.962Z,18.02
2019-04-11T05:25:30.544Z,18.40
2019-04-11T05:26:05.148Z,19.87
2019-04-11T05:26:39.720Z,18.35
2019-04-11T05:27:14.747Z,20.92
2019-04-11T05:27:49.708Z,18.27
2019-04-11T05:28:25.429Z,21.97
2019-04-11T05:29:00.600Z,17.07
2019-04-11T05:29:35.625Z,22.40
2019-04-11T05:30:11.258Z,20.23
2019-04-11T05:30:45.874Z,18.57
2019-04-11T05:31:20.697Z,17.42
2019-04-11T05:31:55.413Z,18.65
2019-04-11T05:32:31.340Z,17.65
2019-04-11T05:33:06.034Z,15.70
2019-04-11T05:33:40.690Z,19.85
2019-04-11T05:34:16.067Z,19.17
2019-04-11T05:34:51.154Z,21.85
2019-04-11T05:35:26.858Z,23.65
2019-04-11T05:36:01.583Z,19.07
2019-04-11T05:36:36.611Z,18.85
2019-04-11T05:37:11.354Z,18.62
2019-04-11T05:37:47.059Z,19.45
2019-04-11T05:38:21.748Z,18.23
2019-04-11T05:38:56.253Z,19.60
2019-04-11T05:39:31.672Z,19.40
2019-04-11T05:40:07.322Z,19.87
2019-04-11T05:40:42.033Z,20.62
2019-04-11T05:41:17.703Z,18.00
2019-04-11T05:41:52.834Z,19.98
2019-04-11T05:42:27.519Z,18.90
2019-04-11T05:43:02.174Z,20.85
2019-04-11T05:43:38.647Z,21.57
2019-04-11T05:44:13.275Z,19.57
2019-04-11T05:44:48.649Z,20.37
2019-04-11T05:45:25.904Z,20.92
2019-04-11T05:46:00.347Z,22.70
2019-04-11T05:46:47.277Z,16.73
2019-04-11T05:47:14.523Z,22.37
2019-04-11T05:47:50.921Z,21.00
2019-04-11T05:48:34.854Z,18.75
2019-04-11T05:49:21.665Z,18.85
2019-04-11T05:49:58.994Z,18.17
2019-04-11T05:50:34.072Z,19.95
2019-04-11T05:51:08.861Z,24.12
2019-04-11T05:51:47.548Z,19.32
2019-04-11T05:52:21.889Z,20.75
2019-04-11T05:52:56.793Z,20.32
2019-04-11T05:53:33.575Z,19.30
2019-04-11T05:54:09.152Z,17.48
2019-04-11T05:54:48.992Z,21.20
2019-04-11T05:55:22.183Z,20.40
2019-04-11T05:55:59.419Z,20.68
2019-04-11T05:56:35.376Z,21.15
2019-04-11T05:57:11.259Z,20.20
2019-04-11T05:57:46.883Z,19.70
2019-04-11T05:58:21.611Z,20.50
2019-04-11T05:58:59.782Z,20.57
2019-04-11T05:59:34.824Z,19.87
2019-04-11T06:00:11.765Z,20.57
2019-04-11T06:00:55.635Z,20.57
2019-04-11T06:01:32.176Z,24.85
2019-04-11T06:02:24.843Z,24.18
2019-04-11T06:03:01.770Z,21.50
2019-04-11T06:03:39.948Z,22.27
2019-04-11T06:04:20.571Z,23.52
2019-04-11T06:04:57.813Z,26.42
2019-04-11T06:05:37.854Z,23.15
2019-04-11T06:06:20.522Z,21.00
2019-04-11T06:07:03.284Z,20.45
2019-04-11T06:07:54.279Z,18.40
2019-04-11T06:08:28.462Z,19.15
2019-04-11T06:09:02.419Z,18.30
2019-04-11T06:09:41.433Z,21.97
2019-04-11T06:10:21.923Z,19.82
2019-04-11T06:11:05.770Z,20.25
2019-04-11T06:11:58.127Z,18.23
2019-04-11T06:12:43.623Z,20.70
2019-04-11T06:13:20.554Z,19.12
2019-04-11T06:14:03.845Z,19.07
2019-04-11T06:14:37.617Z,18.73
2019-04-11T06:15:16.667Z,17.95
2019-04-11T06:15:53.549Z,18.80
2019-04-11T06:16:38.885Z,18.42
2019-04-11T06:17:07.277Z,24.07
2019-04-11T06:17:43.833Z,20.50
2019-04-11T06:18:36.928Z,17.57
2019-04-11T06:19:24.940Z,17.92
2019-04-11T06:20:19.884Z,17.35
2019-04-11T06:20:56.246Z,18.73
2019-04-11T06:21:44.970Z,17.70
2019-04-11T06:22:19.860Z,20.25
2019-04-11T06:23:12.937Z,20.95
2019-04-11T06:23:49.877Z,16.85
2019-04-11T06:24:42.638Z,20.05
2019-04-11T06:25:23.353Z,18.17
2019-04-11T06:26:09.169Z,21.62
2019-04-11T06:26:52.422Z,19.77
2019-04-11T06:27:28.686Z,21.45
2019-04-11T06:28:06.106Z,22.22
2019-04-11T06:28:40.838Z,17.35
2019-04-11T06:29:26.398Z,20.52
2019-04-11T06:30:17.959Z,23.38
2019-04-11T06:31:10.728Z,22.65
2019-04-11T06:32:03.520Z,18.98
2019-04-11T06:32:54.841Z,18.35
2019-04-11T06:33:32.122Z,20.77
2019-04-11T06:34:09.233Z,18.20
2019-04-11T06:34:45.623Z,18.20
2019-04-11T06:35:22.087Z,19.12
2019-04-11T06:36:04.275Z,20.92
2019-04-11T06:36:41.263Z,18.30
2019-04-11T06:37:17.511Z,25.00
2019-04-11T06:37:54.261Z,22.45
2019-04-11T06:38:40.724Z,19.25
2019-04-11T06:39:17.057Z,23.42
2019-04-11T06:40:05.629Z,19.70
2019-04-11T06:40:51.117Z,24.95
2019-04-11T06:41:32.659Z,18.27
2019-04-11T06:42:22.933Z,20.23
2019-04-11T06:42:59.422Z,17.92
2019-04-11T06:43:38.458Z,21.93
2019-04-11T06:44:17.202Z,19.05
2019-04-11T06:44:56.469Z,19.05
2019-04-11T06:45:46.022Z,20.05
2019-04-11T06:46:48.779Z,22.42
2019-04-11T06:47:29.178Z,18.90
2019-04-11T06:48:11.611Z,21.52
2019-04-11T06:49:04.383Z,22.00
2019-04-11T06:49:44.474Z,19.45
2019-04-11T06:50:29.736Z,18.82
2019-04-11T06:51:22.024Z,22.30
2019-04-11T06:51:58.333Z,18.80
2019-04-11T06:52:35.306Z,19.30
2019-04-11T06:53:11.415Z,21.30
2019-04-11T06:53:48.403Z,20.15
2019-04-11T06:54:25.251Z,16.57
2019-04-11T06:55:10.878Z,17.82
2019-04-11T06:55:50.949Z,21.90
2019-04-11T06:56:27.338Z,17.92
2019-04-11T06:57:04.004Z,22.40
2019-04-11T06:57:42.827Z,21.23
2019-04-11T06:58:19.368Z,23.00
2019-04-11T06:58:56.760Z,21.68
2019-04-11T06:59:33.065Z,21.40
2019-04-11T07:00:10.473Z,19.20
2019-04-11T07:00:47.528Z,18.85
2019-04-11T07:01:26.444Z,19.85
2019-04-11T07:02:14.741Z,19.02
2019-04-11T07:03:01.338Z,20.15
2019-04-11T07:03:38.561Z,20.52
2019-04-11T07:04:21.818Z,18.10
2019-04-11T07:04:58.219Z,20.77
2019-04-11T07:05:35.164Z,20.25
2019-04-11T07:06:11.461Z,16.97
2019-04-11T07:06:48.670Z,17.42
2019-04-11T07:07:27.576Z,25.20
2019-04-11T07:08:05.884Z,19.07
2019-04-11T07:09:00.480Z,20.30
2019-04-11T07:09:39.645Z,21.70
2019-04-11T07:10:15.829Z,22.32
2019-04-11T07:10:55.251Z,19.32
2019-04-11T07:11:38.428Z,20.37
2019-04-11T07:12:17.658Z,17.52
2019-04-11T07:13:00.688Z,20.27
2019-04-11T07:13:39.827Z,21.90
2019-04-11T07:14:16.061Z,18.50
2019-04-11T07:14:52.926Z,16.95
2019-04-11T07:15:29.452Z,21.50
2019-04-11T07:16:04.715Z,19.25
2019-04-11T07:16:41.045Z,19.73
2019-04-11T07:17:33.920Z,17.62
2019-04-11T07:18:27.054Z,19.23
2019-04-11T07:19:03.247Z,18.57
2019-04-11T07:19:55.872Z,24.00
2019-04-11T07:20:32.053Z,19.98
2019-04-11T07:21:08.568Z,17.67
2019-04-11T07:21:44.039Z,21.07
2019-04-11T07:22:36.909Z,22.00
2019-04-11T07:23:30.684Z,20.15
2019-04-11T07:24:23.096Z,24.45
2019-04-11T07:25:15.282Z,18.77
2019-04-11T07:25:58.073Z,18.40
2019-04-11T07:26:35.142Z,20.55
2019-04-11T07:27:11.675Z,23.98
2019-04-11T07:28:00.106Z,16.82
2019-04-11T07:28:43.698Z,19.00
2019-04-11T07:29:33.572Z,23.95
2019-04-11T07:30:26.374Z,25.35
2019-04-11T07:31:08.097Z,19.75
2019-04-11T07:31:44.373Z,20.65
2019-04-11T07:32:20.186Z,21.95
2019-04-11T07:32:56.705Z,17.60
2019-04-11T07:33:33.328Z,20.05
2019-04-11T07:34:24.768Z,25.05
2019-04-11T07:35:19.293Z,21.60
2019-04-11T07:35:55.625Z,18.00
2019-04-11T07:36:48.355Z,19.95
2019-04-11T07:37:30.604Z,20.12
2019-04-11T07:38:05.240Z,20.62
2019-04-11T07:38:58.842Z,20.95
2019-04-11T07:39:42.361Z,18.75
2019-04-11T07:40:17.935Z,19.15
2019-04-11T07:40:54.605Z,17.42
2019-04-11T07:41:36.771Z,22.52
2019-04-11T07:42:13.712Z,18.55
2019-04-11T07:42:52.106Z,19.67
2019-04-11T07:43:26.927Z,18.07
2019-04-11T07:44:01.615Z,18.37
2019-04-11T07:44:38.599Z,18.45
2019-04-11T07:45:18.226Z,22.95
2019-04-11T07:46:00.388Z,22.60
2019-04-11T07:46:43.068Z,18.45
2019-04-11T07:47:32.348Z,22.35
2019-04-11T07:48:08.799Z,24.12
2019-04-11T07:48:44.618Z,21.20
2019-04-11T07:49:26.693Z,21.42
2019-04-11T07:50:02.934Z,20.70
2019-04-11T07:50:37.696Z,21.40
2019-04-11T07:51:15.270Z,21.27
2019-04-11T07:51:52.724Z,23.07
2019-04-11T07:52:29.038Z,21.97
2019-04-11T07:53:04.989Z,21.40
2019-04-11T07:53:40.744Z,21.93
2019-04-11T07:54:15.815Z,19.27
2019-04-11T07:54:51.391Z,19.42
2019-04-11T07:55:26.183Z,21.37
2019-04-11T07:56:02.499Z,23.50
2019-04-11T07:56:38.632Z,20.08
2019-04-11T07:57:15.006Z,18.90
2019-04-11T07:57:52.310Z,26.73
2019-04-11T07:58:28.869Z,18.52
2019-04-11T07:59:05.138Z,21.73
2019-04-11T07:59:47.007Z,22.17
2019-04-11T08:00:43.482Z,21.20
2019-04-11T08:01:21.523Z,19.67
2019-04-11T08:02:14.049Z,22.25
2019-04-11T08:02:55.929Z,21.25
2019-04-11T08:03:40.773Z,18.17